Time;durP1;ratioP1;P1;durP2;ratioP2;P2;SDS_P1;SDS_P2;PMS_P1;PMS_P2;Temp;Humidity;BMP_temperature;BMP_pressure;BME280_temperature;BME280_humidity;BME280_pressure;Samples;Min_cycle;Max_cycle;Signal;HPM_P1;HPM_P2
2021/06/21 00:02:26;;;;;;;7.50;3.13;;;17.30;99.90;;;;;;4938006;29;20326;-79
2021/06/21 00:04:53;;;;;;;6.17;3.00;;;17.30;99.90;;;;;;4937937;29;20201;-80
2021/06/21 00:07:21;;;;;;;5.93;3.13;;;17.30;99.90;;;;;;4936895;29;20215;-80
2021/06/21 00:09:48;;;;;;;7.57;3.10;;;17.40;99.90;;;;;;4938136;29;20197;-79
2021/06/21 00:12:17;;;;;;;10.23;3.27;;;17.30;99.90;;;;;;4937643;29;20211;-79
2021/06/21 00:14:44;;;;;;;7.10;3.10;;;17.40;99.90;;;;;;4938021;29;20223;-80
2021/06/21 00:17:15;;;;;;;6.67;3.07;;;17.30;99.90;;;;;;4938040;29;20204;-80
2021/06/21 00:19:41;;;;;;;4.43;2.80;;;17.30;99.90;;;;;;4937512;29;20203;-80
2021/06/21 00:22:08;;;;;;;7.63;3.17;;;17.40;99.90;;;;;;4936293;29;20221;-79
2021/06/21 00:24:35;;;;;;;6.63;2.67;;;17.30;99.90;;;;;;4937729;29;20219;-80
2021/06/21 00:27:02;;;;;;;9.30;3.37;;;17.40;99.90;;;;;;4937640;29;20207;-80
2021/06/21 00:29:29;;;;;;;4.27;2.73;;;17.40;99.90;;;;;;4937156;29;20276;-79
2021/06/21 00:31:55;;;;;;;3.50;2.40;;;17.40;99.90;;;;;;4937380;29;20199;-80
2021/06/21 00:34:24;;;;;;;6.80;3.43;;;17.40;99.90;;;;;;4936895;29;20234;-79
2021/06/21 00:36:50;;;;;;;9.80;4.17;;;17.40;99.90;;;;;;4929873;29;20684;-79
2021/06/21 00:39:17;;;;;;;6.53;3.00;;;17.40;99.90;;;;;;4936783;29;20691;-79
2021/06/21 00:41:44;;;;;;;5.80;2.83;;;17.50;99.90;;;;;;4936267;29;20212;-80
2021/06/21 00:44:11;;;;;;;4.30;2.60;;;17.50;99.90;;;;;;4934323;29;20229;-80
2021/06/21 00:46:38;;;;;;;6.23;3.20;;;17.50;99.90;;;;;;4935624;29;20213;-79
2021/06/21 00:49:05;;;;;;;4.70;2.70;;;17.60;99.90;;;;;;4935759;29;20585;-79
2021/06/21 00:51:34;;;;;;;4.70;3.00;;;17.60;99.90;;;;;;4935590;29;20200;-79
2021/06/21 00:54:02;;;;;;;3.97;2.63;;;17.60;99.90;;;;;;4935286;29;20227;-80
2021/06/21 00:56:29;;;;;;;5.23;2.80;;;17.60;99.90;;;;;;4935340;29;20200;-79
2021/06/21 00:59:00;;;;;;;5.63;2.80;;;17.50;99.90;;;;;;4935566;29;20209;-80
2021/06/21 01:01:27;;;;;;;7.07;2.87;;;17.60;99.90;;;;;;4935192;29;20291;-79
2021/06/21 01:03:54;;;;;;;5.50;2.87;;;17.60;99.90;;;;;;4935429;29;20220;-79
2021/06/21 01:06:21;;;;;;;5.77;2.97;;;17.60;99.90;;;;;;4933857;29;20260;-79
2021/06/21 01:08:50;;;;;;;6.40;2.87;;;17.60;99.90;;;;;;4935370;29;20209;-80
2021/06/21 01:11:17;;;;;;;4.17;2.80;;;17.60;99.90;;;;;;4934121;29;20203;-80
2021/06/21 01:14:04;;;;;;;5.87;2.80;;;17.60;99.90;;;;;;4933769;29;20286;-79
2021/06/21 01:16:35;;;;;;;5.03;2.87;;;17.60;99.90;;;;;;4916123;29;20585;-80
2021/06/21 01:19:11;;;;;;;10.77;3.40;;;17.60;99.90;;;;;;4948406;28;20209;-79
2021/06/21 01:22:10;;;;;;;5.83;2.87;;;17.70;99.90;;;;;;4933905;29;20230;-79
2021/06/21 01:25:10;;;;;;;6.40;3.33;;;17.70;99.90;;;;;;4866467;29;20232;-79
2021/06/21 01:27:56;;;;;;;7.33;3.00;;;17.70;99.90;;;;;;4935033;29;20204;-79
2021/06/21 01:30:27;;;;;;;6.03;3.33;;;17.70;99.90;;;;;;4934353;29;20213;-80
2021/06/21 01:32:59;;;;;;;7.33;3.47;;;17.70;99.90;;;;;;4933655;29;20229;-79
2021/06/21 01:35:30;;;;;;;6.17;3.43;;;17.70;99.90;;;;;;4934880;29;20199;-80
2021/06/21 01:38:01;;;;;;;6.87;3.40;;;17.70;99.90;;;;;;4930368;29;20735;-79
2021/06/21 01:40:31;;;;;;;8.50;3.23;;;17.70;99.90;;;;;;4933339;29;20205;-79
2021/06/21 01:43:02;;;;;;;9.87;3.00;;;17.60;99.90;;;;;;4934320;29;20229;-79
2021/06/21 01:45:30;;;;;;;5.20;2.90;;;17.60;99.90;;;;;;4935014;29;20205;-80
2021/06/21 01:47:59;;;;;;;6.23;3.00;;;17.60;99.90;;;;;;4936654;29;20205;-80
2021/06/21 01:50:27;;;;;;;8.90;3.10;;;17.60;99.90;;;;;;4933552;29;20200;-79
2021/06/21 01:53:06;;;;;;;3.90;3.00;;;17.60;99.90;;;;;;4934422;29;20234;-79
2021/06/21 01:55:35;;;;;;;5.03;3.07;;;17.60;99.90;;;;;;4934609;29;20212;-79
2021/06/21 01:58:02;;;;;;;3.50;2.87;;;17.60;99.90;;;;;;4934564;29;20198;-80
2021/06/21 02:00:30;;;;;;;5.73;3.20;;;17.60;99.90;;;;;;4934748;29;20229;-80
2021/06/21 02:03:00;;;;;;;8.23;3.53;;;17.50;99.90;;;;;;4933471;29;20237;-80
2021/06/21 02:05:29;;;;;;;7.90;3.57;;;17.50;99.90;;;;;;4914934;29;20201;-80
2021/06/21 02:07:57;;;;;;;5.47;3.10;;;17.50;99.90;;;;;;4934446;29;20192;-80
2021/06/21 02:10:23;;;;;;;5.23;3.47;;;17.50;99.90;;;;;;4934608;29;20260;-79
2021/06/21 02:12:52;;;;;;;5.80;3.33;;;17.50;99.90;;;;;;4933152;29;20260;-79
2021/06/21 02:15:19;;;;;;;5.87;3.57;;;17.50;99.90;;;;;;4933204;29;20213;-79
2021/06/21 02:17:46;;;;;;;5.67;3.60;;;17.60;99.90;;;;;;4934427;29;20202;-79
2021/06/21 02:20:16;;;;;;;8.17;3.43;;;17.50;99.90;;;;;;4930084;29;20207;-79
2021/06/21 02:22:45;;;;;;;7.57;3.07;;;17.60;99.90;;;;;;4932007;29;20241;-79
2021/06/21 02:25:13;;;;;;;4.63;3.10;;;17.50;99.90;;;;;;4935885;29;20209;-80
2021/06/21 02:27:40;;;;;;;5.80;3.37;;;17.50;99.90;;;;;;4941170;29;20207;-80
2021/06/21 02:30:11;;;;;;;5.33;3.10;;;17.50;99.90;;;;;;4939524;29;20222;-79
2021/06/21 02:32:38;;;;;;;10.30;3.70;;;17.50;99.90;;;;;;4939306;29;20567;-79
2021/06/21 02:35:07;;;;;;;7.83;3.00;;;17.40;99.90;;;;;;4938286;29;20288;-79
2021/06/21 02:37:36;;;;;;;3.77;3.13;;;17.40;99.90;;;;;;4937910;29;20210;-79
2021/06/21 02:40:05;;;;;;;12.20;3.63;;;17.30;99.90;;;;;;4934537;29;20206;-76
2021/06/21 02:42:32;;;;;;;4.40;3.43;;;17.30;99.90;;;;;;4934753;29;20223;-77
2021/06/21 02:44:59;;;;;;;5.60;3.37;;;17.30;99.90;;;;;;4933692;29;20226;-76
2021/06/21 02:47:28;;;;;;;4.93;3.20;;;17.20;99.90;;;;;;4932216;29;20226;-78
2021/06/21 02:49:55;;;;;;;8.50;3.40;;;17.20;99.90;;;;;;4934240;29;20192;-78
2021/06/21 02:52:31;;;;;;;6.20;3.50;;;17.20;99.90;;;;;;4936737;29;20200;-79
2021/06/21 02:55:09;;;;;;;3.47;3.00;;;17.20;99.90;;;;;;4937025;29;20249;-80
2021/06/21 02:57:45;;;;;;;4.93;3.03;;;17.20;99.90;;;;;;4941422;29;20193;-79
2021/06/21 03:00:13;;;;;;;6.73;3.10;;;17.20;99.90;;;;;;4941793;29;20215;-79
2021/06/21 03:02:40;;;;;;;4.80;3.03;;;17.20;99.90;;;;;;4941721;29;20215;-81
2021/06/21 03:05:08;;;;;;;7.13;3.57;;;17.20;99.90;;;;;;4941070;29;20233;-80
2021/06/21 03:07:36;;;;;;;5.10;3.60;;;17.20;99.90;;;;;;4940024;29;20230;-80
2021/06/21 03:10:06;;;;;;;6.03;3.40;;;17.20;99.90;;;;;;4938826;29;20205;-75
2021/06/21 03:12:34;;;;;;;8.50;3.50;;;17.20;99.90;;;;;;4935732;29;20248;-73
2021/06/21 03:15:01;;;;;;;12.53;3.43;;;17.20;99.90;;;;;;4935915;29;20197;-74
2021/06/21 03:17:29;;;;;;;6.13;3.73;;;17.20;99.90;;;;;;4937790;29;20203;-76
2021/06/21 03:19:57;;;;;;;4.80;3.10;;;17.20;99.90;;;;;;4935962;29;20231;-77
2021/06/21 03:22:26;;;;;;;6.90;3.43;;;17.10;99.90;;;;;;4936987;29;20224;-78
2021/06/21 03:24:54;;;;;;;8.60;3.77;;;17.10;99.90;;;;;;4937091;29;20206;-79
2021/06/21 03:27:30;;;;;;;3.73;3.33;;;17.10;99.90;;;;;;4937196;29;20201;-79
2021/06/21 03:29:57;;;;;;;5.17;3.27;;;17.20;99.90;;;;;;4939227;29;20619;-78
2021/06/21 03:32:27;;;;;;;5.17;3.47;;;17.20;99.90;;;;;;4935642;29;20204;-79
2021/06/21 03:34:58;;;;;;;7.20;3.87;;;17.20;99.90;;;;;;4936072;29;20578;-79
2021/06/21 03:37:25;;;;;;;12.20;4.60;;;17.20;99.90;;;;;;4936552;29;20205;-79
2021/06/21 03:39:52;;;;;;;5.67;4.03;;;17.20;99.90;;;;;;4937424;29;20218;-79
2021/06/21 03:42:19;;;;;;;8.60;4.40;;;17.30;99.90;;;;;;4935353;29;20215;-79
2021/06/21 03:44:47;;;;;;;7.37;4.13;;;17.30;99.90;;;;;;4937521;29;20207;-79
2021/06/21 03:47:15;;;;;;;5.27;3.60;;;17.30;99.90;;;;;;4936945;29;20210;-80
2021/06/21 03:49:43;;;;;;;5.37;4.00;;;17.40;99.90;;;;;;4937507;29;20620;-79
2021/06/21 03:52:10;;;;;;;4.03;3.30;;;17.40;99.90;;;;;;4938959;29;20307;-79
2021/06/21 03:54:37;;;;;;;4.93;3.97;;;17.50;99.90;;;;;;4936830;29;20238;-79
2021/06/21 03:57:05;;;;;;;6.50;3.20;;;17.50;99.90;;;;;;4938247;29;20204;-80
2021/06/21 03:59:32;;;;;;;4.63;3.60;;;17.50;99.90;;;;;;4938009;29;20210;-79
2021/06/21 04:02:00;;;;;;;8.83;4.70;;;17.50;99.90;;;;;;4938253;29;20302;-79
2021/06/21 04:04:28;;;;;;;8.03;4.13;;;17.50;99.90;;;;;;4937215;29;20234;-80
2021/06/21 04:06:55;;;;;;;6.43;3.97;;;17.40;99.90;;;;;;4937996;29;20195;-79
2021/06/21 04:09:22;;;;;;;6.00;4.07;;;17.50;99.90;;;;;;4937880;29;20228;-79
2021/06/21 04:11:50;;;;;;;4.20;3.80;;;17.50;99.90;;;;;;4936265;29;20725;-79
2021/06/21 04:14:17;;;;;;;5.27;3.70;;;17.50;99.90;;;;;;4936402;29;20222;-79
2021/06/21 04:16:44;;;;;;;9.47;4.03;;;17.50;99.90;;;;;;4937459;29;20220;-79
2021/06/21 04:19:12;;;;;;;9.67;4.20;;;17.60;99.90;;;;;;4935914;29;20260;-79
2021/06/21 04:21:39;;;;;;;6.27;4.00;;;17.60;99.90;;;;;;4935705;29;20209;-79
2021/06/21 04:24:07;;;;;;;7.73;3.40;;;17.70;99.90;;;;;;4934816;29;20293;-79
2021/06/21 04:26:35;;;;;;;4.17;3.20;;;17.80;99.90;;;;;;4936227;29;20253;-79
2021/06/21 04:29:02;;;;;;;7.30;3.50;;;17.90;99.90;;;;;;4935073;29;20647;-79
2021/06/21 04:31:29;;;;;;;8.67;3.67;;;18.00;99.90;;;;;;4934764;29;20210;-80
2021/06/21 04:33:55;;;;;;;6.03;3.70;;;18.00;99.90;;;;;;4936082;29;20701;-79
2021/06/21 04:36:23;;;;;;;9.83;3.67;;;18.10;99.90;;;;;;4931737;29;20210;-79
2021/06/21 04:38:50;;;;;;;6.57;4.30;;;18.10;99.90;;;;;;4920714;29;20203;-79
2021/06/21 04:41:17;;;;;;;8.10;3.53;;;18.20;99.90;;;;;;4936044;29;20671;-79
2021/06/21 04:43:44;;;;;;;8.07;6.10;;;18.40;99.90;;;;;;4935697;29;20230;-79
2021/06/21 04:46:11;;;;;;;5.43;4.93;;;18.60;99.90;;;;;;4934669;29;20207;-80
2021/06/21 04:48:38;;;;;;;8.27;6.07;;;18.90;99.90;;;;;;4942191;29;20268;-79
2021/06/21 04:51:05;;;;;;;8.40;5.23;;;19.10;99.90;;;;;;4936129;29;20623;-80
2021/06/21 04:53:34;;;;;;;9.17;8.27;;;19.40;99.90;;;;;;4935539;29;20324;-80
2021/06/21 04:56:01;;;;;;;7.93;7.13;;;19.80;99.90;;;;;;4934295;29;20200;-79
2021/06/21 04:58:34;;;;;;;9.43;8.47;;;20.00;99.90;;;;;;4935796;29;20668;-80
2021/06/21 05:01:00;;;;;;;12.00;10.83;;;20.00;99.90;;;;;;4934524;29;20213;-79
2021/06/21 05:03:27;;;;;;;8.47;7.63;;;20.10;99.90;;;;;;4935641;29;20230;-79
2021/06/21 05:05:54;;;;;;;8.67;7.63;;;20.30;99.90;;;;;;4935514;29;20195;-80
2021/06/21 05:08:21;;;;;;;10.73;9.63;;;20.50;99.90;;;;;;4934335;29;20205;-79
2021/06/21 05:10:49;;;;;;;8.10;7.27;;;20.50;99.90;;;;;;4936306;29;20209;-80
2021/06/21 05:13:16;;;;;;;8.80;8.00;;;20.60;99.90;;;;;;4935249;29;20624;-80
2021/06/21 05:15:43;;;;;;;7.03;6.30;;;20.60;99.90;;;;;;4933483;29;20203;-79
2021/06/21 05:18:12;;;;;;;6.67;5.97;;;20.70;99.90;;;;;;4934352;29;20693;-80
2021/06/21 05:20:38;;;;;;;6.90;6.30;;;20.90;99.90;;;;;;4935620;29;20709;-80
2021/06/21 05:23:05;;;;;;;7.90;6.53;;;21.10;99.90;;;;;;4933874;29;20246;-79
2021/06/21 05:25:33;;;;;;;7.47;6.23;;;21.10;99.90;;;;;;4935409;29;20254;-80
2021/06/21 05:28:02;;;;;;;9.67;4.53;;;21.30;99.90;;;;;;4934001;29;20203;-80
2021/06/21 05:30:29;;;;;;;7.70;6.87;;;21.30;99.90;;;;;;4934395;29;20199;-79
2021/06/21 05:32:56;;;;;;;8.60;8.00;;;21.50;99.90;;;;;;4920610;29;20221;-79
2021/06/21 05:35:23;;;;;;;8.90;7.97;;;21.60;99.90;;;;;;4936033;29;20210;-80
2021/06/21 05:37:50;;;;;;;7.80;7.20;;;22.00;99.90;;;;;;4936638;29;20210;-81
2021/06/21 05:40:17;;;;;;;9.43;8.63;;;22.70;99.90;;;;;;4935372;29;20203;-79
2021/06/21 05:42:45;;;;;;;8.10;7.50;;;23.30;99.90;;;;;;4935947;29;20227;-80
2021/06/21 05:45:15;;;;;;;6.97;6.37;;;24.30;99.90;;;;;;4933660;29;20571;-82
2021/06/21 05:47:42;;;;;;;8.10;7.43;;;25.20;99.90;;;;;;4933261;29;20208;-77
2021/06/21 05:50:10;;;;;;;7.93;7.23;;;25.40;99.90;;;;;;4934705;29;20199;-77
2021/06/21 05:52:49;;;;;;;8.63;7.97;;;25.10;99.90;;;;;;4934328;29;20726;-78
2021/06/21 05:55:18;;;;;;;8.87;7.93;;;24.80;99.90;;;;;;4952958;28;20214;-83
2021/06/21 05:57:46;;;;;;;9.90;9.10;;;24.20;99.90;;;;;;4932159;29;20236;-83
2021/06/21 06:00:16;;;;;;;9.30;8.43;;;23.80;99.90;;;;;;4933437;29;20207;-80
2021/06/21 06:02:43;;;;;;;9.27;8.47;;;24.60;99.90;;;;;;4938645;29;20240;-80
2021/06/21 06:05:10;;;;;;;9.27;8.13;;;25.10;99.90;;;;;;4947132;29;20201;-80
2021/06/21 06:07:37;;;;;;;9.30;7.57;;;25.70;99.90;;;;;;4941957;29;20210;-80
2021/06/21 06:10:05;;;;;;;7.93;7.13;;;25.90;99.90;;;;;;4937301;29;20207;-80
2021/06/21 06:12:32;;;;;;;8.70;6.73;;;26.10;99.90;;;;;;4937935;29;20698;-80
2021/06/21 06:14:59;;;;;;;7.30;6.30;;;26.50;99.90;;;;;;4939087;29;20206;-80
2021/06/21 06:17:28;;;;;;;7.43;6.07;;;26.70;99.90;;;;;;4940618;29;20218;-80
2021/06/21 06:19:55;;;;;;;8.47;6.17;;;26.80;99.90;;;;;;4939828;29;20187;-81
2021/06/21 06:22:22;;;;;;;7.23;5.50;;;26.80;99.90;;;;;;4938189;29;20199;-80
2021/06/21 06:24:49;;;;;;;5.97;5.37;;;26.50;99.90;;;;;;4939456;29;20225;-80
2021/06/21 06:27:16;;;;;;;5.83;5.33;;;26.70;99.90;;;;;;4939138;29;20580;-80
2021/06/21 06:29:42;;;;;;;7.67;6.90;;;26.40;99.90;;;;;;4941658;29;20211;-80
2021/06/21 06:32:09;;;;;;;7.20;6.27;;;25.70;99.90;;;;;;4943615;29;20204;-80
2021/06/21 06:34:38;;;;;;;6.43;5.83;;;25.50;99.90;;;;;;4942512;29;20215;-80
2021/06/21 06:37:06;;;;;;;7.33;6.20;;;25.70;99.90;;;;;;4943094;29;20199;-81
2021/06/21 06:39:34;;;;;;;6.80;6.20;;;26.20;99.90;;;;;;4942573;29;20303;-80
2021/06/21 06:42:01;;;;;;;6.73;5.97;;;26.30;99.90;;;;;;4941271;29;20250;-80
2021/06/21 06:44:27;;;;;;;10.27;7.30;;;26.70;99.90;;;;;;4942361;29;20230;-80
2021/06/21 06:46:54;;;;;;;9.47;6.50;;;27.00;99.90;;;;;;4941729;29;20270;-80
2021/06/21 06:49:21;;;;;;;7.27;6.67;;;27.10;99.90;;;;;;4940738;29;20690;-80
2021/06/21 06:51:52;;;;;;;6.63;6.13;;;27.30;99.90;;;;;;4939740;29;20200;-79
2021/06/21 06:54:26;;;;;;;7.77;5.83;;;27.60;99.90;;;;;;4938867;29;20305;-80
2021/06/21 06:56:59;;;;;;;7.37;5.63;;;27.90;99.90;;;;;;4956108;29;20232;-80
2021/06/21 06:59:27;;;;;;;7.93;5.53;;;28.30;99.90;;;;;;4940892;29;20706;-81
2021/06/21 07:01:54;;;;;;;7.10;5.40;;;28.70;99.90;;;;;;4939924;29;20210;-81
2021/06/21 07:04:21;;;;;;;7.03;5.10;;;28.90;99.90;;;;;;4940367;29;20262;-80
2021/06/21 07:06:49;;;;;;;8.37;5.67;;;29.20;99.90;;;;;;4939329;29;20588;-80
2021/06/21 07:09:16;;;;;;;6.67;5.43;;;29.00;99.90;;;;;;4942180;29;20203;-80
2021/06/21 07:11:45;;;;;;;9.17;6.10;;;28.90;99.90;;;;;;4940148;29;20203;-80
2021/06/21 07:14:12;;;;;;;7.53;5.30;;;28.70;99.90;;;;;;4954463;28;20230;-81
2021/06/21 07:16:39;;;;;;;6.93;5.60;;;28.60;99.90;;;;;;4938786;29;20590;-80
2021/06/21 07:19:06;;;;;;;8.63;5.23;;;28.80;99.90;;;;;;4939098;29;20211;-80
2021/06/21 07:21:33;;;;;;;6.60;5.30;;;28.70;99.90;;;;;;4940064;29;20258;-80
2021/06/21 07:24:01;;;;;;;7.50;6.80;;;28.60;99.90;;;;;;4940013;29;20222;-80
2021/06/21 07:26:28;;;;;;;7.77;7.00;;;28.30;99.90;;;;;;4942722;29;20195;-80
2021/06/21 07:28:56;;;;;;;7.10;6.47;;;28.30;99.90;;;;;;4935519;29;20199;-78
2021/06/21 07:31:23;;;;;;;7.93;7.23;;;28.10;99.90;;;;;;4938068;29;20210;-80
2021/06/21 07:33:50;;;;;;;7.27;6.67;;;28.30;99.90;;;;;;4939119;29;20215;-80
2021/06/21 07:36:16;;;;;;;7.77;7.10;;;28.70;99.90;;;;;;4953764;29;20214;-81
2021/06/21 07:38:43;;;;;;;9.10;8.33;;;29.10;99.90;;;;;;4939075;29;20199;-81
2021/06/21 07:41:12;;;;;;;7.30;6.80;;;29.40;99.90;;;;;;4939562;29;20690;-81
2021/06/21 07:43:38;;;;;;;7.73;7.03;;;29.40;99.90;;;;;;4937008;29;20226;-81
2021/06/21 07:46:05;;;;;;;7.33;6.70;;;29.40;99.90;;;;;;4936362;29;20211;-81
2021/06/21 07:48:34;;;;;;;8.63;6.83;;;29.60;99.90;;;;;;4936647;29;20258;-81
2021/06/21 07:51:03;;;;;;;7.47;6.60;;;29.40;99.90;;;;;;4937064;29;20203;-80
2021/06/21 07:53:30;;;;;;;6.47;5.87;;;29.50;99.90;;;;;;4937728;29;20764;-79
2021/06/21 07:55:57;;;;;;;6.63;5.50;;;29.40;99.90;;;;;;4938522;29;20717;-79
2021/06/21 07:58:25;;;;;;;6.33;5.57;;;29.30;99.90;;;;;;4936521;29;20206;-79
2021/06/21 08:00:52;;;;;;;6.67;6.00;;;29.10;99.90;;;;;;4936440;29;20199;-79
2021/06/21 08:03:19;;;;;;;7.00;6.40;;;28.90;99.90;;;;;;4937958;29;20226;-79
2021/06/21 08:05:49;;;;;;;7.43;6.73;;;28.70;99.90;;;;;;4936095;29;20200;-79
2021/06/21 08:08:16;;;;;;;7.50;6.50;;;28.70;99.90;;;;;;4936121;29;20286;-83
2021/06/21 08:10:43;;;;;;;6.63;6.13;;;28.80;99.90;;;;;;4936802;29;20217;-82
2021/06/21 08:13:10;;;;;;;6.70;6.20;;;29.00;99.90;;;;;;4936712;29;20223;-83
2021/06/21 08:15:38;;;;;;;7.17;6.57;;;29.20;99.90;;;;;;4941227;29;20211;-83
2021/06/21 08:18:06;;;;;;;6.63;6.03;;;29.50;99.90;;;;;;4935501;29;20724;-83
2021/06/21 08:20:33;;;;;;;6.67;6.17;;;29.60;99.90;;;;;;4935703;29;20206;-83
2021/06/21 08:23:06;;;;;;;6.53;6.13;;;30.00;99.90;;;;;;4936135;29;20214;-81
2021/06/21 08:25:35;;;;;;;6.83;6.33;;;30.30;99.90;;;;;;4934740;29;20218;-84
2021/06/21 08:28:05;;;;;;;6.53;6.07;;;30.50;99.90;;;;;;4929046;29;20227;-80
2021/06/21 08:30:32;;;;;;;6.60;6.00;;;30.60;99.90;;;;;;4936476;29;20210;-83
2021/06/21 08:33:01;;;;;;;7.07;6.60;;;30.50;99.90;;;;;;4936770;29;20222;-84
2021/06/21 08:39:58;;;;;;;6.60;6.20;;;30.50;99.10;;;;;;4876378;29;20365;-83
2021/06/21 08:42:35;;;;;;;6.90;6.40;;;30.60;97.80;;;;;;4809770;29;20211;-83
2021/06/21 08:45:18;;;;;;;6.47;5.97;;;30.70;99.90;;;;;;4930547;29;20241;-80
2021/06/21 08:47:46;;;;;;;6.90;6.40;;;31.00;98.70;;;;;;4950532;29;20203;-80
2021/06/21 08:50:17;;;;;;;7.30;6.70;;;31.30;99.50;;;;;;4934228;29;20302;-81
2021/06/21 08:52:45;;;;;;;7.17;6.67;;;31.30;98.60;;;;;;4935395;29;20601;-80
2021/06/21 08:55:13;;;;;;;6.43;5.93;;;31.40;98.20;;;;;;4935971;29;20195;-80
2021/06/21 08:57:44;;;;;;;7.17;6.17;;;31.40;98.40;;;;;;4931914;29;20270;-81
2021/06/21 09:00:13;;;;;;;6.50;5.93;;;31.40;97.10;;;;;;4947428;29;20306;-78
2021/06/21 09:02:40;;;;;;;6.40;5.80;;;31.30;97.30;;;;;;4929969;29;20223;-80
2021/06/21 09:05:10;;;;;;;7.57;6.17;;;31.50;96.90;;;;;;4923562;29;20252;-80
2021/06/21 09:07:42;;;;;;;6.50;5.90;;;31.50;97.00;;;;;;4934550;29;20298;-80
2021/06/21 09:10:23;;;;;;;6.70;6.13;;;31.40;95.50;;;;;;4948773;28;20239;-80
2021/06/21 09:13:08;;;;;;;6.10;5.60;;;31.50;95.50;;;;;;4933462;29;20211;-81
2021/06/21 09:15:37;;;;;;;6.20;5.60;;;31.50;96.40;;;;;;4936257;29;20278;-81
2021/06/21 09:18:25;;;;;;;6.90;6.30;;;31.50;96.60;;;;;;4932625;29;20199;-81
2021/06/21 09:21:37;;;;;;;7.40;6.57;;;31.50;97.10;;;;;;4933205;29;20203;-78
2021/06/21 09:24:15;;;;;;;6.13;5.73;;;31.70;95.70;;;;;;4932439;29;20303;-81
2021/06/21 09:26:43;;;;;;;6.50;6.00;;;31.90;95.40;;;;;;4933740;29;20201;-80
2021/06/21 09:29:11;;;;;;;6.30;5.90;;;32.00;96.20;;;;;;4934783;29;20204;-81
2021/06/21 09:31:50;;;;;;;6.80;6.30;;;32.00;96.30;;;;;;4932857;29;20207;-80
2021/06/21 09:34:18;;;;;;;6.70;6.20;;;32.10;95.90;;;;;;4934471;29;20705;-79
2021/06/21 09:36:47;;;;;;;6.60;6.00;;;32.00;94.80;;;;;;4933628;29;20434;-80
2021/06/21 09:39:25;;;;;;;6.77;5.93;;;32.00;94.40;;;;;;4935700;29;20211;-79
2021/06/21 09:42:07;;;;;;;6.47;6.07;;;32.00;95.10;;;;;;4945555;29;20205;-80
2021/06/21 09:44:36;;;;;;;6.70;6.20;;;32.20;95.40;;;;;;4937155;29;20226;-81
2021/06/21 09:47:24;;;;;;;6.67;6.07;;;32.30;95.50;;;;;;4942059;29;20206;-80
2021/06/21 09:50:17;;;;;;;6.57;6.17;;;32.40;92.60;;;;;;4946673;29;20209;-80
2021/06/21 09:52:46;;;;;;;6.70;6.20;;;32.30;93.10;;;;;;4932899;29;20709;-81
2021/06/21 09:55:30;;;;;;;6.67;6.13;;;32.20;93.00;;;;;;4933418;29;20203;-80
2021/06/21 09:58:12;;;;;;;7.20;6.60;;;32.10;94.10;;;;;;4934981;29;20203;-80
2021/06/21 10:00:42;;;;;;;7.17;6.53;;;32.10;93.90;;;;;;4933576;29;20207;-80
2021/06/21 10:03:15;;;;;;;6.73;6.33;;;32.10;93.50;;;;;;4933077;29;20325;-81
2021/06/21 10:05:44;;;;;;;6.90;6.40;;;32.10;93.10;;;;;;4938954;29;20211;-80
2021/06/21 10:08:14;;;;;;;6.50;5.90;;;32.00;93.50;;;;;;4941255;29;20666;-80
2021/06/21 10:10:43;;;;;;;6.30;5.83;;;32.00;94.00;;;;;;4939756;29;20207;-81
2021/06/21 10:13:11;;;;;;;6.57;6.07;;;31.70;92.80;;;;;;4936241;29;20224;-80
2021/06/21 10:15:39;;;;;;;6.47;5.87;;;31.50;94.50;;;;;;4947661;28;20223;-81
2021/06/21 10:18:07;;;;;;;6.63;6.13;;;31.40;95.20;;;;;;4939422;29;20214;-80
2021/06/21 10:20:35;;;;;;;6.20;5.70;;;31.50;94.10;;;;;;4939577;29;20278;-80
2021/06/21 10:23:06;;;;;;;6.90;6.20;;;31.30;92.80;;;;;;4938935;29;20242;-80
2021/06/21 10:25:33;;;;;;;5.97;5.57;;;31.10;93.30;;;;;;4938501;29;20223;-80
2021/06/21 10:28:03;;;;;;;6.40;5.80;;;31.00;94.40;;;;;;4937200;29;20207;-80
2021/06/21 10:30:32;;;;;;;6.40;5.80;;;31.10;94.30;;;;;;4937261;29;20230;-80
2021/06/21 10:33:00;;;;;;;6.47;5.83;;;31.10;94.70;;;;;;4937089;29;20222;-79
2021/06/21 10:35:31;;;;;;;6.10;5.60;;;30.80;93.90;;;;;;4937301;29;20200;-80
2021/06/21 10:38:05;;;;;;;6.00;5.50;;;30.70;96.00;;;;;;4934424;29;20277;-80
2021/06/21 10:40:32;;;;;;;5.90;5.40;;;30.70;95.40;;;;;;4934548;29;20196;-80
2021/06/21 10:42:59;;;;;;;7.43;6.13;;;30.70;96.10;;;;;;4938257;29;20230;-80
2021/06/21 10:45:29;;;;;;;6.00;5.60;;;30.70;95.10;;;;;;4937940;29;20254;-80
2021/06/21 10:48:10;;;;;;;5.83;5.43;;;30.60;95.00;;;;;;4937070;29;20222;-80
2021/06/21 10:50:51;;;;;;;6.00;5.50;;;30.50;95.20;;;;;;4938129;29;20612;-80
2021/06/21 10:53:24;;;;;;;6.17;5.63;;;30.40;94.40;;;;;;4933920;29;20840;-80
2021/06/21 10:55:54;;;;;;;7.73;5.77;;;30.30;96.50;;;;;;4937817;29;20191;-80
2021/06/21 10:58:43;;;;;;;8.47;5.80;;;30.20;96.10;;;;;;4936442;29;20270;-81
2021/06/21 11:01:21;;;;;;;6.83;5.63;;;30.10;95.60;;;;;;4937499;29;20204;-80
2021/06/21 11:03:49;;;;;;;6.20;5.80;;;29.90;95.50;;;;;;4936210;29;20226;-80
2021/06/21 11:06:37;;;;;;;6.50;5.90;;;29.90;96.10;;;;;;4936342;29;20270;-80
2021/06/21 11:09:08;;;;;;;6.50;5.90;;;29.90;95.40;;;;;;4935742;29;20585;-80
2021/06/21 11:11:55;;;;;;;6.07;5.67;;;29.90;95.70;;;;;;4935453;29;20250;-80
2021/06/21 11:14:28;;;;;;;7.43;6.60;;;29.70;95.40;;;;;;4939267;29;20227;-80
2021/06/21 11:17:23;;;;;;;6.40;5.80;;;29.60;95.60;;;;;;4940202;29;20734;-80
2021/06/21 11:19:50;;;;;;;6.40;5.90;;;29.70;96.20;;;;;;4940084;29;20203;-81
2021/06/21 11:22:17;;;;;;;6.67;5.87;;;29.90;96.50;;;;;;4946931;29;20222;-80
2021/06/21 11:25:03;;;;;;;6.50;5.90;;;30.00;95.50;;;;;;4940209;28;20215;-80
2021/06/21 11:27:44;;;;;;;6.40;5.90;;;29.80;93.90;;;;;;4939628;29;20693;-80
2021/06/21 11:30:35;;;;;;;6.60;5.97;;;29.60;95.00;;;;;;4938393;29;20203;-80
2021/06/21 11:33:10;;;;;;;6.57;6.00;;;29.50;95.30;;;;;;4950483;28;20268;-78
2021/06/21 11:35:56;;;;;;;6.10;5.60;;;29.50;95.40;;;;;;4953945;29;20206;-80
2021/06/21 11:38:26;;;;;;;6.23;5.80;;;29.50;96.20;;;;;;4935912;29;20219;-80
2021/06/21 11:41:15;;;;;;;6.37;5.90;;;29.60;96.70;;;;;;4938873;29;20578;-80
2021/06/21 11:43:47;;;;;;;6.73;6.13;;;29.60;95.70;;;;;;4937788;29;20227;-80
2021/06/21 11:46:36;;;;;;;6.20;5.70;;;29.40;95.70;;;;;;4953206;28;20219;-80
2021/06/21 11:49:10;;;;;;;6.50;5.90;;;29.40;96.30;;;;;;4938988;29;20207;-80
2021/06/21 11:51:37;;;;;;;6.83;6.10;;;29.30;95.00;;;;;;4936614;29;20212;-80
2021/06/21 11:54:05;;;;;;;6.70;6.20;;;29.40;95.80;;;;;;4955601;23;20260;-77
2021/06/21 11:56:32;;;;;;;6.90;6.40;;;29.40;96.00;;;;;;4915948;29;20203;-77
2021/06/21 11:59:00;;;;;;;6.40;5.90;;;29.50;95.70;;;;;;4914936;29;20675;-77
2021/06/21 12:01:29;;;;;;;6.30;5.80;;;29.40;95.70;;;;;;4918829;29;20219;-77
2021/06/21 12:03:57;;;;;;;6.23;5.83;;;29.20;94.10;;;;;;4918343;29;20220;-76
2021/06/21 12:06:28;;;;;;;6.10;5.50;;;28.70;94.50;;;;;;4917099;29;20690;-77
2021/06/21 12:08:56;;;;;;;6.43;5.93;;;28.40;94.90;;;;;;4916756;29;20207;-77
2021/06/21 12:11:25;;;;;;;6.00;5.60;;;28.40;96.90;;;;;;4916314;29;20203;-76
2021/06/21 12:13:56;;;;;;;6.00;5.43;;;28.50;97.30;;;;;;4930483;29;20230;-77
2021/06/21 12:16:25;;;;;;;5.90;5.30;;;28.80;97.10;;;;;;4916083;29;20196;-76
2021/06/21 12:18:53;;;;;;;5.70;5.30;;;28.80;94.90;;;;;;4916441;29;20684;-76
2021/06/21 12:21:34;;;;;;;5.80;5.20;;;28.80;95.80;;;;;;4915057;29;20210;-77
2021/06/21 12:24:18;;;;;;;6.10;5.47;;;28.80;94.80;;;;;;4914842;29;20234;-77
2021/06/21 12:26:46;;;;;;;5.83;5.33;;;28.50;94.60;;;;;;4916098;29;20196;-77
2021/06/21 12:29:28;;;;;;;6.00;5.60;;;28.40;95.60;;;;;;4916728;29;20200;-77
2021/06/21 12:31:57;;;;;;;5.60;5.20;;;28.50;95.80;;;;;;4910035;29;20202;-77
2021/06/21 12:34:40;;;;;;;5.70;5.30;;;28.70;96.10;;;;;;4916311;29;20216;-76
2021/06/21 12:37:20;;;;;;;6.07;5.30;;;28.80;94.80;;;;;;4911451;29;20207;-77
2021/06/21 12:39:49;;;;;;;5.47;5.17;;;28.70;94.70;;;;;;4915177;29;20207;-77
2021/06/21 12:42:17;;;;;;;5.83;5.27;;;28.60;95.50;;;;;;4915208;29;20204;-76
2021/06/21 12:44:45;;;;;;;5.47;5.03;;;28.70;95.40;;;;;;4916129;29;20303;-77
2021/06/21 12:47:20;;;;;;;5.63;5.23;;;28.70;94.50;;;;;;4916116;29;20211;-77
2021/06/21 12:49:48;;;;;;;5.70;5.30;;;28.60;95.20;;;;;;4916273;29;20293;-75
2021/06/21 12:52:17;;;;;;;6.03;5.30;;;28.60;92.20;;;;;;4912886;29;20216;-74
2021/06/21 12:54:46;;;;;;;5.70;5.30;;;28.40;93.40;;;;;;4915630;29;20228;-74
2021/06/21 12:57:13;;;;;;;5.87;5.30;;;28.40;93.90;;;;;;4917514;29;20215;-75
2021/06/21 12:59:42;;;;;;;5.40;5.00;;;28.40;95.50;;;;;;4916197;29;20199;-75
2021/06/21 13:02:20;;;;;;;5.53;5.13;;;28.40;95.60;;;;;;4911285;29;20586;-74
2021/06/21 13:04:58;;;;;;;5.60;5.10;;;28.40;96.10;;;;;;4915759;29;20223;-75
2021/06/21 13:07:27;;;;;;;5.70;5.30;;;28.40;95.40;;;;;;4912867;29;20203;-75